sensor_id;sensor_type;location;lat;lon;timestamp;P1;durP1;ratioP1;P2;durP2;ratioP2
80677;SDS011;70042;52.494;5.502;2023-07-29T00:04:14;2.78;;;1.80;;
80677;SDS011;70042;52.494;5.502;2023-07-29T00:09:05;3.60;;;2.17;;
80677;SDS011;70042;52.494;5.502;2023-07-29T00:13:58;2.55;;;1.90;;
80677;SDS011;70042;52.494;5.502;2023-07-29T00:16:27;4.32;;;2.00;;
80677;SDS011;70042;52.494;5.502;2023-07-29T00:18:52;2.60;;;2.00;;
80677;SDS011;70042;52.494;5.502;2023-07-29T00:23:43;3.23;;;1.90;;
80677;SDS011;70042;52.494;5.502;2023-07-29T00:26:10;3.08;;;1.83;;
80677;SDS011;70042;52.494;5.502;2023-07-29T00:31:01;2.40;;;1.70;;
80677;SDS011;70042;52.494;5.502;2023-07-29T00:33:27;2.67;;;1.70;;
80677;SDS011;70042;52.494;5.502;2023-07-29T00:38:18;2.47;;;1.63;;
80677;SDS011;70042;52.494;5.502;2023-07-29T00:43:08;2.50;;;1.90;;
80677;SDS011;70042;52.494;5.502;2023-07-29T00:48:00;2.50;;;1.75;;
80677;SDS011;70042;52.494;5.502;2023-07-29T00:50:26;2.63;;;1.58;;
80677;SDS011;70042;52.494;5.502;2023-07-29T00:52:54;2.15;;;1.75;;
80677;SDS011;70042;52.494;5.502;2023-07-29T00:55:20;4.05;;;1.73;;
80677;SDS011;70042;52.494;5.502;2023-07-29T01:00:13;2.45;;;1.42;;
80677;SDS011;70042;52.494;5.502;2023-07-29T01:02:41;1.75;;;1.40;;
80677;SDS011;70042;52.494;5.502;2023-07-29T01:05:07;2.80;;;1.48;;
80677;SDS011;70042;52.494;5.502;2023-07-29T01:13:33;2.45;;;1.70;;
80677;SDS011;70042;52.494;5.502;2023-07-29T01:16:07;2.00;;;1.52;;
80677;SDS011;70042;52.494;5.502;2023-07-29T01:18:39;1.98;;;1.70;;
80677;SDS011;70042;52.494;5.502;2023-07-29T01:23:35;2.22;;;1.52;;
80677;SDS011;70042;52.494;5.502;2023-07-29T01:26:01;1.90;;;1.33;;
80677;SDS011;70042;52.494;5.502;2023-07-29T01:28:27;2.22;;;1.23;;
80677;SDS011;70042;52.494;5.502;2023-07-29T01:30:57;1.63;;;1.50;;
80677;SDS011;70042;52.494;5.502;2023-07-29T01:33:46;1.70;;;1.30;;
80677;SDS011;70042;52.494;5.502;2023-07-29T01:36:20;1.75;;;1.23;;
80677;SDS011;70042;52.494;5.502;2023-07-29T01:38:48;2.38;;;1.33;;
80677;SDS011;70042;52.494;5.502;2023-07-29T01:41:16;2.45;;;1.20;;
80677;SDS011;70042;52.494;5.502;2023-07-29T01:43:43;2.40;;;1.13;;
80677;SDS011;70042;52.494;5.502;2023-07-29T01:46:12;1.88;;;1.23;;
80677;SDS011;70042;52.494;5.502;2023-07-29T01:48:38;3.50;;;1.80;;
80677;SDS011;70042;52.494;5.502;2023-07-29T01:51:04;2.95;;;1.33;;
80677;SDS011;70042;52.494;5.502;2023-07-29T01:53:31;2.35;;;1.38;;
80677;SDS011;70042;52.494;5.502;2023-07-29T01:55:56;1.52;;;1.05;;
80677;SDS011;70042;52.494;5.502;2023-07-29T01:58:22;2.92;;;1.27;;
80677;SDS011;70042;52.494;5.502;2023-07-29T02:03:13;1.37;;;0.97;;
80677;SDS011;70042;52.494;5.502;2023-07-29T02:08:04;2.85;;;1.30;;
80677;SDS011;70042;52.494;5.502;2023-07-29T02:12:55;1.57;;;1.20;;
80677;SDS011;70042;52.494;5.502;2023-07-29T02:15:20;1.52;;;1.00;;
80677;SDS011;70042;52.494;5.502;2023-07-29T02:20:11;1.40;;;1.00;;
80677;SDS011;70042;52.494;5.502;2023-07-29T02:22:36;1.38;;;0.82;;
80677;SDS011;70042;52.494;5.502;2023-07-29T02:27:27;1.83;;;1.00;;
80677;SDS011;70042;52.494;5.502;2023-07-29T02:32:19;1.63;;;1.10;;
80677;SDS011;70042;52.494;5.502;2023-07-29T02:34:45;1.77;;;1.08;;
80677;SDS011;70042;52.494;5.502;2023-07-29T02:39:36;1.33;;;0.80;;
80677;SDS011;70042;52.494;5.502;2023-07-29T02:42:02;2.65;;;1.15;;
80677;SDS011;70042;52.494;5.502;2023-07-29T02:44:27;1.73;;;0.80;;
80677;SDS011;70042;52.494;5.502;2023-07-29T02:49:20;1.20;;;0.88;;
80677;SDS011;70042;52.494;5.502;2023-07-29T02:54:11;1.83;;;1.27;;
80677;SDS011;70042;52.494;5.502;2023-07-29T02:59:02;1.50;;;0.90;;
80677;SDS011;70042;52.494;5.502;2023-07-29T03:01:27;1.15;;;0.70;;
80677;SDS011;70042;52.494;5.502;2023-07-29T03:06:18;1.40;;;1.07;;
80677;SDS011;70042;52.494;5.502;2023-07-29T03:11:10;1.15;;;0.70;;
80677;SDS011;70042;52.494;5.502;2023-07-29T03:13:38;1.75;;;1.00;;
80677;SDS011;70042;52.494;5.502;2023-07-29T03:16:10;1.13;;;0.77;;
80677;SDS011;70042;52.494;5.502;2023-07-29T03:18:37;1.40;;;1.00;;
80677;SDS011;70042;52.494;5.502;2023-07-29T03:23:28;1.25;;;0.70;;
80677;SDS011;70042;52.494;5.502;2023-07-29T03:25:58;4.90;;;0.88;;
80677;SDS011;70042;52.494;5.502;2023-07-29T03:28:25;2.47;;;1.00;;
80677;SDS011;70042;52.494;5.502;2023-07-29T03:30:52;1.00;;;0.70;;
80677;SDS011;70042;52.494;5.502;2023-07-29T03:33:18;1.10;;;0.63;;
80677;SDS011;70042;52.494;5.502;2023-07-29T03:35:44;1.55;;;0.82;;
80677;SDS011;70042;52.494;5.502;2023-07-29T03:40:36;1.27;;;0.80;;
80677;SDS011;70042;52.494;5.502;2023-07-29T03:43:02;2.22;;;0.90;;
80677;SDS011;70042;52.494;5.502;2023-07-29T03:47:52;1.77;;;0.70;;
80677;SDS011;70042;52.494;5.502;2023-07-29T03:50:18;1.90;;;0.80;;
80677;SDS011;70042;52.494;5.502;2023-07-29T03:52:43;1.30;;;0.70;;
80677;SDS011;70042;52.494;5.502;2023-07-29T03:55:09;0.88;;;0.60;;
80677;SDS011;70042;52.494;5.502;2023-07-29T03:59:59;1.63;;;1.03;;
80677;SDS011;70042;52.494;5.502;2023-07-29T04:04:50;1.50;;;0.70;;
80677;SDS011;70042;52.494;5.502;2023-07-29T04:09:41;1.17;;;0.80;;
80677;SDS011;70042;52.494;5.502;2023-07-29T04:12:08;1.08;;;0.68;;
80677;SDS011;70042;52.494;5.502;2023-07-29T04:14:33;1.55;;;0.90;;
80677;SDS011;70042;52.494;5.502;2023-07-29T04:19:24;1.57;;;0.67;;
80677;SDS011;70042;52.494;5.502;2023-07-29T04:24:16;1.67;;;1.00;;
80677;SDS011;70042;52.494;5.502;2023-07-29T04:29:06;1.77;;;0.70;;
80677;SDS011;70042;52.494;5.502;2023-07-29T04:31:32;1.10;;;0.80;;
80677;SDS011;70042;52.494;5.502;2023-07-29T04:33:57;0.95;;;0.73;;
80677;SDS011;70042;52.494;5.502;2023-07-29T04:36:22;1.45;;;0.70;;
80677;SDS011;70042;52.494;5.502;2023-07-29T04:41:13;1.30;;;0.80;;
80677;SDS011;70042;52.494;5.502;2023-07-29T04:46:07;1.53;;;0.70;;
80677;SDS011;70042;52.494;5.502;2023-07-29T04:48:33;1.20;;;0.75;;
80677;SDS011;70042;52.494;5.502;2023-07-29T04:50:59;1.10;;;0.63;;
80677;SDS011;70042;52.494;5.502;2023-07-29T04:55:50;1.10;;;0.70;;
80677;SDS011;70042;52.494;5.502;2023-07-29T05:00:40;1.77;;;0.70;;
80677;SDS011;70042;52.494;5.502;2023-07-29T05:05:31;0.95;;;0.60;;
80677;SDS011;70042;52.494;5.502;2023-07-29T05:07:57;2.17;;;0.80;;
80677;SDS011;70042;52.494;5.502;2023-07-29T05:12:48;1.43;;;0.90;;
80677;SDS011;70042;52.494;5.502;2023-07-29T05:15:14;1.98;;;0.70;;
80677;SDS011;70042;52.494;5.502;2023-07-29T05:17:40;1.10;;;0.65;;
80677;SDS011;70042;52.494;5.502;2023-07-29T05:22:31;1.55;;;0.73;;
80677;SDS011;70042;52.494;5.502;2023-07-29T05:27:22;1.20;;;0.70;;
80677;SDS011;70042;52.494;5.502;2023-07-29T05:32:12;1.83;;;0.70;;
80677;SDS011;70042;52.494;5.502;2023-07-29T05:37:03;0.80;;;0.60;;
80677;SDS011;70042;52.494;5.502;2023-07-29T05:39:29;1.13;;;0.70;;
80677;SDS011;70042;52.494;5.502;2023-07-29T05:41:57;1.40;;;0.70;;
80677;SDS011;70042;52.494;5.502;2023-07-29T05:46:48;1.20;;;0.50;;
80677;SDS011;70042;52.494;5.502;2023-07-29T05:51:39;1.63;;;0.67;;
80677;SDS011;70042;52.494;5.502;2023-07-29T05:56:29;1.02;;;0.60;;
80677;SDS011;70042;52.494;5.502;2023-07-29T05:58:56;1.40;;;0.77;;
80677;SDS011;70042;52.494;5.502;2023-07-29T06:01:22;0.80;;;0.50;;
80677;SDS011;70042;52.494;5.502;2023-07-29T06:06:13;1.65;;;0.75;;
80677;SDS011;70042;52.494;5.502;2023-07-29T06:11:03;1.00;;;0.68;;
80677;SDS011;70042;52.494;5.502;2023-07-29T06:13:31;1.08;;;0.60;;
80677;SDS011;70042;52.494;5.502;2023-07-29T06:15:59;1.08;;;0.70;;
80677;SDS011;70042;52.494;5.502;2023-07-29T06:18:25;1.10;;;0.80;;
80677;SDS011;70042;52.494;5.502;2023-07-29T06:20:50;1.30;;;0.70;;
80677;SDS011;70042;52.494;5.502;2023-07-29T06:23:16;1.58;;;0.60;;
80677;SDS011;70042;52.494;5.502;2023-07-29T06:25:41;1.03;;;0.50;;
80677;SDS011;70042;52.494;5.502;2023-07-29T06:30:34;1.20;;;0.70;;
80677;SDS011;70042;52.494;5.502;2023-07-29T06:35:24;1.20;;;0.70;;
80677;SDS011;70042;52.494;5.502;2023-07-29T06:40:15;1.57;;;0.60;;
80677;SDS011;70042;52.494;5.502;2023-07-29T06:45:06;1.13;;;0.73;;
80677;SDS011;70042;52.494;5.502;2023-07-29T06:47:32;1.63;;;0.93;;
80677;SDS011;70042;52.494;5.502;2023-07-29T06:49:57;1.27;;;0.70;;
80677;SDS011;70042;52.494;5.502;2023-07-29T06:54:48;1.30;;;0.70;;
80677;SDS011;70042;52.494;5.502;2023-07-29T06:57:13;2.47;;;0.80;;
80677;SDS011;70042;52.494;5.502;2023-07-29T07:02:05;1.00;;;0.53;;
80677;SDS011;70042;52.494;5.502;2023-07-29T07:04:31;0.85;;;0.60;;
80677;SDS011;70042;52.494;5.502;2023-07-29T07:06:56;1.55;;;0.70;;
80677;SDS011;70042;52.494;5.502;2023-07-29T07:11:47;1.10;;;0.60;;
80677;SDS011;70042;52.494;5.502;2023-07-29T07:14:12;2.40;;;0.80;;
80677;SDS011;70042;52.494;5.502;2023-07-29T07:19:04;1.50;;;0.75;;
80677;SDS011;70042;52.494;5.502;2023-07-29T07:23:57;1.60;;;0.70;;
80677;SDS011;70042;52.494;5.502;2023-07-29T07:26:23;1.30;;;0.93;;
80677;SDS011;70042;52.494;5.502;2023-07-29T07:28:48;1.42;;;0.50;;
80677;SDS011;70042;52.494;5.502;2023-07-29T07:33:41;1.85;;;0.80;;
80677;SDS011;70042;52.494;5.502;2023-07-29T07:36:06;2.88;;;0.73;;
80677;SDS011;70042;52.494;5.502;2023-07-29T07:40:57;2.13;;;0.80;;
80677;SDS011;70042;52.494;5.502;2023-07-29T07:45:48;2.83;;;0.75;;
80677;SDS011;70042;52.494;5.502;2023-07-29T07:48:14;1.55;;;0.45;;
80677;SDS011;70042;52.494;5.502;2023-07-29T07:50:41;1.05;;;0.50;;
80677;SDS011;70042;52.494;5.502;2023-07-29T07:53:06;2.90;;;0.77;;
80677;SDS011;70042;52.494;5.502;2023-07-29T07:57:57;1.17;;;0.80;;
80677;SDS011;70042;52.494;5.502;2023-07-29T08:00:23;1.20;;;0.60;;
80677;SDS011;70042;52.494;5.502;2023-07-29T08:02:48;1.38;;;0.77;;
80677;SDS011;70042;52.494;5.502;2023-07-29T08:07:39;2.50;;;0.70;;
80677;SDS011;70042;52.494;5.502;2023-07-29T08:12:30;2.08;;;0.73;;
80677;SDS011;70042;52.494;5.502;2023-07-29T08:14:55;2.03;;;0.90;;
80677;SDS011;70042;52.494;5.502;2023-07-29T08:17:21;1.70;;;0.80;;
80677;SDS011;70042;52.494;5.502;2023-07-29T08:22:12;2.67;;;1.58;;
80677;SDS011;70042;52.494;5.502;2023-07-29T08:27:02;2.50;;;1.17;;
80677;SDS011;70042;52.494;5.502;2023-07-29T08:31:53;2.20;;;0.90;;
80677;SDS011;70042;52.494;5.502;2023-07-29T08:34:20;1.58;;;0.90;;
80677;SDS011;70042;52.494;5.502;2023-07-29T08:36:45;1.90;;;0.90;;
80677;SDS011;70042;52.494;5.502;2023-07-29T08:44:43;2.75;;;1.48;;
80677;SDS011;70042;52.494;5.502;2023-07-29T08:47:09;2.97;;;0.88;;
80677;SDS011;70042;52.494;5.502;2023-07-29T08:52:01;1.35;;;0.80;;
80677;SDS011;70042;52.494;5.502;2023-07-29T08:54:28;2.88;;;1.25;;
80677;SDS011;70042;52.494;5.502;2023-07-29T08:59:19;1.42;;;0.75;;
80677;SDS011;70042;52.494;5.502;2023-07-29T09:04:11;2.33;;;0.85;;
80677;SDS011;70042;52.494;5.502;2023-07-29T09:09:04;2.88;;;0.90;;
80677;SDS011;70042;52.494;5.502;2023-07-29T09:11:30;1.83;;;0.70;;
80677;SDS011;70042;52.494;5.502;2023-07-29T09:16:21;2.78;;;0.90;;
80677;SDS011;70042;52.494;5.502;2023-07-29T09:21:15;2.85;;;1.08;;
80677;SDS011;70042;52.494;5.502;2023-07-29T09:23:42;2.38;;;1.00;;
80677;SDS011;70042;52.494;5.502;2023-07-29T09:26:08;2.40;;;1.33;;
80677;SDS011;70042;52.494;5.502;2023-07-29T09:31:00;2.03;;;0.90;;
80677;SDS011;70042;52.494;5.502;2023-07-29T09:35:51;2.40;;;0.80;;
80677;SDS011;70042;52.494;5.502;2023-07-29T09:40:42;8.38;;;0.98;;
80677;SDS011;70042;52.494;5.502;2023-07-29T09:43:10;2.05;;;0.90;;
80677;SDS011;70042;52.494;5.502;2023-07-29T09:48:02;1.73;;;0.70;;
80677;SDS011;70042;52.494;5.502;2023-07-29T09:50:30;1.73;;;0.80;;
80677;SDS011;70042;52.494;5.502;2023-07-29T09:55:23;1.98;;;1.00;;
80677;SDS011;70042;52.494;5.502;2023-07-29T09:57:53;3.05;;;1.05;;
80677;SDS011;70042;52.494;5.502;2023-07-29T10:00:20;2.53;;;0.73;;
80677;SDS011;70042;52.494;5.502;2023-07-29T10:05:12;3.28;;;1.10;;
80677;SDS011;70042;52.494;5.502;2023-07-29T10:10:04;2.20;;;0.90;;
80677;SDS011;70042;52.494;5.502;2023-07-29T10:12:30;2.72;;;0.90;;
80677;SDS011;70042;52.494;5.502;2023-07-29T10:14:58;1.48;;;0.90;;
80677;SDS011;70042;52.494;5.502;2023-07-29T10:17:26;1.58;;;0.68;;
80677;SDS011;70042;52.494;5.502;2023-07-29T10:22:22;1.70;;;0.80;;
80677;SDS011;70042;52.494;5.502;2023-07-29T10:24:50;3.50;;;0.95;;
80677;SDS011;70042;52.494;5.502;2023-07-29T10:27:19;2.60;;;1.10;;
80677;SDS011;70042;52.494;5.502;2023-07-29T10:29:46;1.45;;;0.73;;
80677;SDS011;70042;52.494;5.502;2023-07-29T10:32:12;1.65;;;0.75;;
80677;SDS011;70042;52.494;5.502;2023-07-29T10:37:04;1.33;;;0.80;;
80677;SDS011;70042;52.494;5.502;2023-07-29T10:42:06;3.22;;;0.93;;
80677;SDS011;70042;52.494;5.502;2023-07-29T10:49:45;1.83;;;0.82;;
80677;SDS011;70042;52.494;5.502;2023-07-29T10:52:16;7.28;;;0.90;;
80677;SDS011;70042;52.494;5.502;2023-07-29T10:54:52;2.15;;;1.10;;
80677;SDS011;70042;52.494;5.502;2023-07-29T11:00:00;2.58;;;0.65;;
80677;SDS011;70042;52.494;5.502;2023-07-29T11:02:28;2.22;;;1.15;;
80677;SDS011;70042;52.494;5.502;2023-07-29T11:04:56;1.58;;;0.88;;
80677;SDS011;70042;52.494;5.502;2023-07-29T11:15:12;2.88;;;1.20;;
80677;SDS011;70042;52.494;5.502;2023-07-29T11:20:12;3.53;;;1.30;;
80677;SDS011;70042;52.494;5.502;2023-07-29T11:22:39;1.65;;;1.13;;
80677;SDS011;70042;52.494;5.502;2023-07-29T11:27:32;2.53;;;1.08;;
80677;SDS011;70042;52.494;5.502;2023-07-29T11:32:23;2.35;;;1.23;;
80677;SDS011;70042;52.494;5.502;2023-07-29T11:34:50;2.53;;;0.93;;
80677;SDS011;70042;52.494;5.502;2023-07-29T11:39:41;2.28;;;0.98;;
80677;SDS011;70042;52.494;5.502;2023-07-29T11:44:36;1.55;;;0.95;;
80677;SDS011;70042;52.494;5.502;2023-07-29T11:49:26;2.23;;;0.97;;
80677;SDS011;70042;52.494;5.502;2023-07-29T11:54:18;2.42;;;1.20;;
80677;SDS011;70042;52.494;5.502;2023-07-29T11:56:46;1.67;;;1.00;;
80677;SDS011;70042;52.494;5.502;2023-07-29T11:59:12;3.03;;;1.00;;
80677;SDS011;70042;52.494;5.502;2023-07-29T12:01:39;2.20;;;1.17;;
80677;SDS011;70042;52.494;5.502;2023-07-29T12:06:30;2.00;;;0.90;;
80677;SDS011;70042;52.494;5.502;2023-07-29T12:11:22;1.35;;;0.90;;
80677;SDS011;70042;52.494;5.502;2023-07-29T12:16:16;2.40;;;1.07;;
80677;SDS011;70042;52.494;5.502;2023-07-29T12:18:42;1.77;;;0.90;;
80677;SDS011;70042;52.494;5.502;2023-07-29T12:23:33;3.00;;;0.90;;
80677;SDS011;70042;52.494;5.502;2023-07-29T12:25:59;2.47;;;1.20;;
80677;SDS011;70042;52.494;5.502;2023-07-29T12:28:25;2.65;;;1.10;;
80677;SDS011;70042;52.494;5.502;2023-07-29T12:30:57;1.90;;;0.95;;
80677;SDS011;70042;52.494;5.502;2023-07-29T12:33:32;2.45;;;0.88;;
80677;SDS011;70042;52.494;5.502;2023-07-29T12:36:07;1.60;;;0.90;;
80677;SDS011;70042;52.494;5.502;2023-07-29T12:40:58;1.97;;;0.90;;
80677;SDS011;70042;52.494;5.502;2023-07-29T12:45:49;2.72;;;1.27;;
80677;SDS011;70042;52.494;5.502;2023-07-29T12:50:40;2.10;;;0.80;;
80677;SDS011;70042;52.494;5.502;2023-07-29T12:53:06;2.05;;;1.02;;
80677;SDS011;70042;52.494;5.502;2023-07-29T12:55:33;2.30;;;0.95;;
80677;SDS011;70042;52.494;5.502;2023-07-29T13:00:24;1.80;;;1.00;;
80677;SDS011;70042;52.494;5.502;2023-07-29T13:05:15;2.13;;;0.88;;
80677;SDS011;70042;52.494;5.502;2023-07-29T13:10:10;2.22;;;1.23;;
80677;SDS011;70042;52.494;5.502;2023-07-29T13:12:35;2.03;;;0.88;;
80677;SDS011;70042;52.494;5.502;2023-07-29T13:17:27;1.40;;;0.82;;
80677;SDS011;70042;52.494;5.502;2023-07-29T13:22:19;3.20;;;0.90;;
80677;SDS011;70042;52.494;5.502;2023-07-29T13:24:45;1.80;;;1.23;;
80677;SDS011;70042;52.494;5.502;2023-07-29T13:29:36;1.57;;;0.70;;
80677;SDS011;70042;52.494;5.502;2023-07-29T13:34:26;2.20;;;1.10;;
80677;SDS011;70042;52.494;5.502;2023-07-29T13:39:18;1.48;;;0.90;;
80677;SDS011;70042;52.494;5.502;2023-07-29T13:44:08;1.43;;;0.83;;
80677;SDS011;70042;52.494;5.502;2023-07-29T13:48:59;1.10;;;0.70;;
80677;SDS011;70042;52.494;5.502;2023-07-29T13:53:50;1.70;;;1.23;;
80677;SDS011;70042;52.494;5.502;2023-07-29T13:58:40;1.23;;;0.87;;
80677;SDS011;70042;52.494;5.502;2023-07-29T14:03:31;1.30;;;0.70;;
80677;SDS011;70042;52.494;5.502;2023-07-29T14:08:22;1.87;;;0.70;;
80677;SDS011;70042;52.494;5.502;2023-07-29T14:13:16;1.45;;;1.02;;
80677;SDS011;70042;52.494;5.502;2023-07-29T14:18:06;1.80;;;0.97;;
80677;SDS011;70042;52.494;5.502;2023-07-29T14:22:57;2.28;;;0.90;;
80677;SDS011;70042;52.494;5.502;2023-07-29T14:27:48;1.67;;;0.93;;
80677;SDS011;70042;52.494;5.502;2023-07-29T14:32:39;2.72;;;0.98;;
80677;SDS011;70042;52.494;5.502;2023-07-29T14:35:05;1.40;;;0.70;;
80677;SDS011;70042;52.494;5.502;2023-07-29T14:39:59;2.85;;;0.80;;
80677;SDS011;70042;52.494;5.502;2023-07-29T14:42:25;1.95;;;0.90;;
80677;SDS011;70042;52.494;5.502;2023-07-29T14:44:52;1.45;;;0.90;;
80677;SDS011;70042;52.494;5.502;2023-07-29T14:49:43;1.57;;;1.13;;
80677;SDS011;70042;52.494;5.502;2023-07-29T14:52:09;2.88;;;0.80;;
80677;SDS011;70042;52.494;5.502;2023-07-29T14:57:00;1.60;;;0.87;;
80677;SDS011;70042;52.494;5.502;2023-07-29T15:01:53;2.72;;;0.80;;
80677;SDS011;70042;52.494;5.502;2023-07-29T15:06:44;1.67;;;0.75;;
80677;SDS011;70042;52.494;5.502;2023-07-29T15:09:12;2.35;;;0.90;;
80677;SDS011;70042;52.494;5.502;2023-07-29T15:11:38;1.42;;;0.77;;
80677;SDS011;70042;52.494;5.502;2023-07-29T15:16:29;2.00;;;0.73;;
80677;SDS011;70042;52.494;5.502;2023-07-29T15:21:20;2.47;;;0.68;;
80677;SDS011;70042;52.494;5.502;2023-07-29T15:26:11;2.13;;;0.80;;
80677;SDS011;70042;52.494;5.502;2023-07-29T15:31:02;3.73;;;0.90;;
80677;SDS011;70042;52.494;5.502;2023-07-29T15:35:53;2.40;;;0.80;;
80677;SDS011;70042;52.494;5.502;2023-07-29T15:40:44;1.92;;;1.00;;
80677;SDS011;70042;52.494;5.502;2023-07-29T15:43:09;1.60;;;0.82;;
80677;SDS011;70042;52.494;5.502;2023-07-29T15:48:00;3.95;;;0.85;;
80677;SDS011;70042;52.494;5.502;2023-07-29T15:50:27;2.13;;;1.10;;
80677;SDS011;70042;52.494;5.502;2023-07-29T15:52:52;1.80;;;0.70;;
80677;SDS011;70042;52.494;5.502;2023-07-29T15:55:19;3.83;;;0.80;;
80677;SDS011;70042;52.494;5.502;2023-07-29T16:00:10;1.30;;;0.83;;
80677;SDS011;70042;52.494;5.502;2023-07-29T16:02:36;1.95;;;0.80;;
80677;SDS011;70042;52.494;5.502;2023-07-29T16:05:03;1.65;;;0.80;;
80677;SDS011;70042;52.494;5.502;2023-07-29T16:07:28;2.85;;;0.90;;
80677;SDS011;70042;52.494;5.502;2023-07-29T16:09:54;1.80;;;0.82;;
80677;SDS011;70042;52.494;5.502;2023-07-29T16:14:44;1.23;;;0.80;;
80677;SDS011;70042;52.494;5.502;2023-07-29T16:19:37;1.70;;;0.73;;
80677;SDS011;70042;52.494;5.502;2023-07-29T16:22:17;1.77;;;0.80;;
80677;SDS011;70042;52.494;5.502;2023-07-29T16:27:08;2.10;;;0.87;;
80677;SDS011;70042;52.494;5.502;2023-07-29T16:31:58;2.80;;;0.97;;
80677;SDS011;70042;52.494;5.502;2023-07-29T16:36:49;1.47;;;0.53;;
80677;SDS011;70042;52.494;5.502;2023-07-29T16:41:40;0.90;;;0.70;;
80677;SDS011;70042;52.494;5.502;2023-07-29T16:46:30;2.10;;;0.97;;
80677;SDS011;70042;52.494;5.502;2023-07-29T16:51:21;1.90;;;0.77;;
80677;SDS011;70042;52.494;5.502;2023-07-29T16:56:13;1.77;;;0.90;;
80677;SDS011;70042;52.494;5.502;2023-07-29T17:01:03;1.17;;;0.70;;
80677;SDS011;70042;52.494;5.502;2023-07-29T17:05:54;2.63;;;0.90;;
80677;SDS011;70042;52.494;5.502;2023-07-29T17:08:21;1.88;;;0.60;;
80677;SDS011;70042;52.494;5.502;2023-07-29T17:13:12;1.40;;;0.80;;
80677;SDS011;70042;52.494;5.502;2023-07-29T17:18:03;1.57;;;0.77;;
80677;SDS011;70042;52.494;5.502;2023-07-29T17:22:53;1.73;;;0.90;;
80677;SDS011;70042;52.494;5.502;2023-07-29T17:27:45;1.15;;;0.80;;
80677;SDS011;70042;52.494;5.502;2023-07-29T17:32:37;2.08;;;0.85;;
80677;SDS011;70042;52.494;5.502;2023-07-29T17:35:02;3.83;;;1.23;;
80677;SDS011;70042;52.494;5.502;2023-07-29T17:39:54;1.92;;;0.95;;
80677;SDS011;70042;52.494;5.502;2023-07-29T17:44:44;2.10;;;1.10;;
80677;SDS011;70042;52.494;5.502;2023-07-29T17:47:10;1.80;;;0.88;;
80677;SDS011;70042;52.494;5.502;2023-07-29T17:52:02;3.05;;;1.08;;
80677;SDS011;70042;52.494;5.502;2023-07-29T17:56:53;1.40;;;0.80;;
80677;SDS011;70042;52.494;5.502;2023-07-29T18:01:44;1.77;;;0.80;;
80677;SDS011;70042;52.494;5.502;2023-07-29T18:04:13;1.02;;;0.75;;
80677;SDS011;70042;52.494;5.502;2023-07-29T18:06:38;2.00;;;0.77;;
80677;SDS011;70042;52.494;5.502;2023-07-29T18:11:29;2.63;;;0.97;;
80677;SDS011;70042;52.494;5.502;2023-07-29T18:16:20;1.63;;;0.90;;
80677;SDS011;70042;52.494;5.502;2023-07-29T18:18:48;1.63;;;0.90;;
80677;SDS011;70042;52.494;5.502;2023-07-29T18:21:14;2.08;;;1.23;;
80677;SDS011;70042;52.494;5.502;2023-07-29T18:23:39;1.63;;;1.00;;
80677;SDS011;70042;52.494;5.502;2023-07-29T18:28:30;1.43;;;0.93;;
80677;SDS011;70042;52.494;5.502;2023-07-29T18:33:20;1.30;;;0.80;;
80677;SDS011;70042;52.494;5.502;2023-07-29T18:35:46;1.77;;;1.15;;
80677;SDS011;70042;52.494;5.502;2023-07-29T18:40:37;2.50;;;0.87;;
80677;SDS011;70042;52.494;5.502;2023-07-29T18:43:05;2.30;;;1.00;;
80677;SDS011;70042;52.494;5.502;2023-07-29T18:45:32;2.17;;;1.08;;
80677;SDS011;70042;52.494;5.502;2023-07-29T18:47:57;1.92;;;0.90;;
80677;SDS011;70042;52.494;5.502;2023-07-29T18:50:23;2.58;;;1.05;;
80677;SDS011;70042;52.494;5.502;2023-07-29T18:52:48;1.90;;;0.80;;
80677;SDS011;70042;52.494;5.502;2023-07-29T18:57:39;2.03;;;1.10;;
80677;SDS011;70042;52.494;5.502;2023-07-29T19:02:31;1.90;;;0.88;;
80677;SDS011;70042;52.494;5.502;2023-07-29T19:04:57;2.10;;;1.05;;
80677;SDS011;70042;52.494;5.502;2023-07-29T19:09:50;1.48;;;0.80;;
80677;SDS011;70042;52.494;5.502;2023-07-29T19:12:18;1.73;;;0.90;;
80677;SDS011;70042;52.494;5.502;2023-07-29T19:14:44;2.65;;;0.82;;
80677;SDS011;70042;52.494;5.502;2023-07-29T19:19:35;1.40;;;0.90;;
80677;SDS011;70042;52.494;5.502;2023-07-29T19:24:25;1.80;;;0.97;;
80677;SDS011;70042;52.494;5.502;2023-07-29T19:26:51;1.98;;;0.75;;
80677;SDS011;70042;52.494;5.502;2023-07-29T19:31:42;2.70;;;1.08;;
80677;SDS011;70042;52.494;5.502;2023-07-29T19:36:33;2.40;;;0.80;;
80677;SDS011;70042;52.494;5.502;2023-07-29T19:39:00;1.58;;;1.00;;
80677;SDS011;70042;52.494;5.502;2023-07-29T19:41:26;1.80;;;0.90;;
80677;SDS011;70042;52.494;5.502;2023-07-29T19:43:52;2.58;;;0.93;;
80677;SDS011;70042;52.494;5.502;2023-07-29T19:48:44;3.17;;;1.17;;
80677;SDS011;70042;52.494;5.502;2023-07-29T19:51:09;1.58;;;0.95;;
80677;SDS011;70042;52.494;5.502;2023-07-29T19:53:35;1.83;;;1.20;;
80677;SDS011;70042;52.494;5.502;2023-07-29T19:58:26;1.83;;;1.00;;
80677;SDS011;70042;52.494;5.502;2023-07-29T20:03:17;1.90;;;0.80;;
80677;SDS011;70042;52.494;5.502;2023-07-29T20:05:43;1.40;;;1.10;;
80677;SDS011;70042;52.494;5.502;2023-07-29T20:08:08;1.88;;;1.00;;
80677;SDS011;70042;52.494;5.502;2023-07-29T20:12:59;1.70;;;0.80;;
80677;SDS011;70042;52.494;5.502;2023-07-29T20:15:26;2.97;;;0.93;;
80677;SDS011;70042;52.494;5.502;2023-07-29T20:17:52;1.98;;;1.00;;
80677;SDS011;70042;52.494;5.502;2023-07-29T20:22:43;2.20;;;1.10;;
80677;SDS011;70042;52.494;5.502;2023-07-29T20:27:34;2.42;;;1.25;;
80677;SDS011;70042;52.494;5.502;2023-07-29T20:32:26;1.48;;;0.90;;
80677;SDS011;70042;52.494;5.502;2023-07-29T20:34:51;2.72;;;1.20;;
80677;SDS011;70042;52.494;5.502;2023-07-29T20:37:17;2.00;;;1.02;;
80677;SDS011;70042;52.494;5.502;2023-07-29T20:39:43;2.08;;;1.20;;
80677;SDS011;70042;52.494;5.502;2023-07-29T20:44:33;3.93;;;1.30;;
80677;SDS011;70042;52.494;5.502;2023-07-29T20:49:26;2.20;;;1.20;;
80677;SDS011;70042;52.494;5.502;2023-07-29T20:51:52;1.60;;;1.00;;
80677;SDS011;70042;52.494;5.502;2023-07-29T20:54:18;4.28;;;1.27;;
80677;SDS011;70042;52.494;5.502;2023-07-29T20:59:08;1.92;;;1.10;;
80677;SDS011;70042;52.494;5.502;2023-07-29T21:01:36;2.65;;;1.23;;
80677;SDS011;70042;52.494;5.502;2023-07-29T21:04:01;2.80;;;1.17;;
80677;SDS011;70042;52.494;5.502;2023-07-29T21:08:52;2.53;;;1.20;;
80677;SDS011;70042;52.494;5.502;2023-07-29T21:13:43;2.75;;;1.02;;
80677;SDS011;70042;52.494;5.502;2023-07-29T21:18:34;1.97;;;1.20;;
80677;SDS011;70042;52.494;5.502;2023-07-29T21:20:59;1.80;;;1.02;;
80677;SDS011;70042;52.494;5.502;2023-07-29T21:25:56;2.88;;;1.55;;
80677;SDS011;70042;52.494;5.502;2023-07-29T21:28:21;3.88;;;1.27;;
80677;SDS011;70042;52.494;5.502;2023-07-29T21:33:14;2.40;;;1.17;;
80677;SDS011;70042;52.494;5.502;2023-07-29T21:35:39;3.65;;;1.23;;
80677;SDS011;70042;52.494;5.502;2023-07-29T21:38:05;12.25;;;1.45;;
80677;SDS011;70042;52.494;5.502;2023-07-29T21:40:30;3.47;;;1.40;;
80677;SDS011;70042;52.494;5.502;2023-07-29T21:45:21;4.13;;;1.50;;
80677;SDS011;70042;52.494;5.502;2023-07-29T21:47:46;3.13;;;1.35;;
80677;SDS011;70042;52.494;5.502;2023-07-29T21:52:39;3.08;;;1.48;;
80677;SDS011;70042;52.494;5.502;2023-07-29T21:55:04;2.58;;;1.30;;
80677;SDS011;70042;52.494;5.502;2023-07-29T21:57:30;2.00;;;1.00;;
80677;SDS011;70042;52.494;5.502;2023-07-29T22:02:21;3.53;;;1.48;;
80677;SDS011;70042;52.494;5.502;2023-07-29T22:07:11;2.30;;;1.30;;
80677;SDS011;70042;52.494;5.502;2023-07-29T22:09:38;1.80;;;1.30;;
80677;SDS011;70042;52.494;5.502;2023-07-29T22:12:03;3.42;;;1.15;;
80677;SDS011;70042;52.494;5.502;2023-07-29T22:14:29;2.72;;;1.30;;
80677;SDS011;70042;52.494;5.502;2023-07-29T22:19:20;2.15;;;1.10;;
80677;SDS011;70042;52.494;5.502;2023-07-29T22:21:46;2.35;;;1.08;;
80677;SDS011;70042;52.494;5.502;2023-07-29T22:24:15;1.90;;;1.17;;